Bozeman, MT

7:39 PM MDT on October 22, 2014 (GMT -0600)
Yellowstone | Change Station
CLOSE
Current Station
Airport
Location: West Yellowstone,
Elevation: 6644 ft
Nearby Weather Stations

Elev 6644 ft 44.69 °N, 111.12 °W | Updated 4 minutes ago

Clear
Clear
36 °F
Feels Like 31 °F
N
6
Wind Variable Wind from SSE

Today
High -- | Low -- °F
--% Chance of Precip.
Yesterday
High -- | Low -- °F
Precip. -- in
7:50 AM 6:26 PM
Waning Crescent, 1% visible
Pressure 30.19 in
Visibility 10.0 miles
Clouds Clear
Windchill 31 °F
Dew Point 27 °F
Humidity 70%
Rainfall 0.00 in
Snow Depth 2 in , 1 in
UV 0 out of 12
Pollen .40 out of 12
Air Quality Not available.
Flu Activity No Activity
METAR KWYS 230135Z AUTO 15005KT 10SM CLR 02/M03 A3019 RMK AO2

More Conditions Fewer Conditions

Pressure 30.19 in
Visibility 10.0 miles
Clouds Clear
Windchill 31 °F
Dew Point 27 °F
Humidity 70%
Rainfall 0.00 in
Snow Depth 2 in , 1 in
UV 0 out of 12
Pollen .40 out of 12
Air Quality Not available.
Flu Activity No Activity
METAR KWYS 230135Z AUTO 15005KT 10SM CLR 02/M03 A3019 RMK AO2

More Conditions Fewer Conditions

10-Day Weather Forecast

Almanac

Astronomy

Oct. 22, 2014 Rise Set
Actual Time 7:50 AM MDT 6:26 PM MDT
Civil Twilight 7:19 AM MDT 6:56 PM MDT
Nautical Twilight 6:45 AM MDT 7:31 PM MDT
Astronomical Twilight 6:10 AM MDT 8:05 PM MDT
Moon 6:31 AM MDT (10/22) 5:57 PM MDT (10/22)
Length of Visible Light 11h 36m
Length of Day
10h 36m
Tomorrow will be 3m 1s shorter.
Waning Crescent, 1% of the Moon is Illuminated
Today
Waning Crescent
Oct 23
New
Oct 30
First Quarter
Nov 6
Full
Nov 14
Last Quarter

Today's Extremes

State Highs State Lows

Community

WunderPhotos

Upload Photos

1,764,106 photos uploaded!

Nearby

Snow Depth

Station Depth Elevation
Sacajawea 2 in 6550 ft
Shower Falls 1 in 8100 ft
Porcupine 0 in 6500 ft
Albro Lake 3 in 8300 ft
Brackett Creek 4 in 7320 ft

Earthquake Activity

City Distance Mag. Time & Date
No recent earthquake activity has been reported nearby.
Minimum magnitude displayed is 2.5.

Coastal Water Temperatures

Place Temperature
No Stations Reporting

Nearby Weather Stations